Mildred, Missouri
Current Conditions -  °F | °C
As of 10:45 AM on Saturday 25 Oct 2014 (Local Time) from KBBG Reporting Station
Clear Clear  
Wind Chill: 75°   Ceiling: Unl
Heat Index: 75°   Visibility: 10mi
Dew Point: 63°   Wind: 6mph
Humidity: 65%   Direction: 250°WSW
Pressure: 30.12"   Gusts: NA
Location:  36.5876°N, 93.1264°W
Report Text: KBBG 251545Z 25005KT 10SM SKC 24/17 A3012
Loading
Personal Weather Stations






























Interactive Weather Map
Tropical Storm Tracking
New forecast layout! Learn more

10-Day Weather Forecast

Advertisements
Track Severe Weather on mobile